sensor_id;sensor_type;location;lat;lon;timestamp;pressure;altitude;pressure_sealevel;temperature;humidity
34506;BME280;20748;42.632;23.198;2024-03-06T00:01:28;91693.84;;;3.55;100.00
34506;BME280;20748;42.632;23.198;2024-03-06T00:04:03;91699.25;;;3.59;100.00
34506;BME280;20748;42.632;23.198;2024-03-06T00:06:37;91706.22;;;3.53;100.00
34506;BME280;20748;42.632;23.198;2024-03-06T00:09:12;91704.19;;;3.45;100.00
34506;BME280;20748;42.632;23.198;2024-03-06T00:11:45;91704.44;;;3.43;100.00
34506;BME280;20748;42.632;23.198;2024-03-06T00:14:19;91711.69;;;3.41;100.00
34506;BME280;20748;42.632;23.198;2024-03-06T00:16:54;91702.66;;;3.49;100.00
34506;BME280;20748;42.632;23.198;2024-03-06T00:19:28;91706.50;;;3.46;100.00
34506;BME280;20748;42.632;23.198;2024-03-06T00:22:02;91705.72;;;3.46;100.00
34506;BME280;20748;42.632;23.198;2024-03-06T00:24:37;91709.34;;;3.55;100.00
34506;BME280;20748;42.632;23.198;2024-03-06T00:27:10;91710.63;;;3.58;100.00
34506;BME280;20748;42.632;23.198;2024-03-06T00:29:44;91712.66;;;3.66;100.00
34506;BME280;20748;42.632;23.198;2024-03-06T00:32:18;91717.56;;;3.73;100.00
34506;BME280;20748;42.632;23.198;2024-03-06T00:34:51;91706.69;;;3.71;100.00
34506;BME280;20748;42.632;23.198;2024-03-06T00:37:25;91712.41;;;3.73;100.00
34506;BME280;20748;42.632;23.198;2024-03-06T00:40:00;91713.41;;;3.72;100.00
34506;BME280;20748;42.632;23.198;2024-03-06T00:42:34;91709.53;;;3.74;100.00
34506;BME280;20748;42.632;23.198;2024-03-06T00:45:08;91709.03;;;3.72;100.00
34506;BME280;20748;42.632;23.198;2024-03-06T00:47:42;91711.13;;;3.65;100.00
34506;BME280;20748;42.632;23.198;2024-03-06T00:50:16;91718.31;;;3.63;100.00
34506;BME280;20748;42.632;23.198;2024-03-06T00:52:50;91717.09;;;3.50;100.00
34506;BME280;20748;42.632;23.198;2024-03-06T00:55:25;91728.69;;;3.53;100.00
34506;BME280;20748;42.632;23.198;2024-03-06T00:57:59;91724.28;;;3.48;100.00
34506;BME280;20748;42.632;23.198;2024-03-06T01:00:33;91731.28;;;3.42;100.00
34506;BME280;20748;42.632;23.198;2024-03-06T01:03:07;91739.78;;;3.32;100.00
34506;BME280;20748;42.632;23.198;2024-03-06T01:05:40;91721.50;;;3.08;100.00
34506;BME280;20748;42.632;23.198;2024-03-06T01:08:14;91736.19;;;3.18;100.00
34506;BME280;20748;42.632;23.198;2024-03-06T01:10:52;91738.25;;;3.11;100.00
34506;BME280;20748;42.632;23.198;2024-03-06T01:13:26;91737.47;;;3.15;100.00
34506;BME280;20748;42.632;23.198;2024-03-06T01:15:59;91738.00;;;3.07;100.00
34506;BME280;20748;42.632;23.198;2024-03-06T01:18:33;91739.00;;;2.95;100.00
34506;BME280;20748;42.632;23.198;2024-03-06T01:21:07;91735.69;;;2.90;100.00
34506;BME280;20748;42.632;23.198;2024-03-06T01:23:40;91730.25;;;2.91;100.00
34506;BME280;20748;42.632;23.198;2024-03-06T01:26:15;91730.78;;;2.88;100.00
34506;BME280;20748;42.632;23.198;2024-03-06T01:28:50;91728.44;;;2.87;100.00
34506;BME280;20748;42.632;23.198;2024-03-06T01:31:23;91728.94;;;2.84;100.00
34506;BME280;20748;42.632;23.198;2024-03-06T01:33:57;91719.41;;;2.79;100.00
34506;BME280;20748;42.632;23.198;2024-03-06T01:36:31;91720.44;;;2.78;100.00
34506;BME280;20748;42.632;23.198;2024-03-06T01:39:05;91728.16;;;2.73;100.00
34506;BME280;20748;42.632;23.198;2024-03-06T01:41:45;91725.59;;;2.73;100.00
34506;BME280;20748;42.632;23.198;2024-03-06T01:44:19;91722.47;;;2.55;100.00
34506;BME280;20748;42.632;23.198;2024-03-06T01:46:53;91718.59;;;2.52;100.00
34506;BME280;20748;42.632;23.198;2024-03-06T01:49:27;91716.28;;;2.51;100.00
34506;BME280;20748;42.632;23.198;2024-03-06T01:52:13;91724.75;;;2.41;100.00
34506;BME280;20748;42.632;23.198;2024-03-06T01:54:48;91720.63;;;2.35;100.00
34506;BME280;20748;42.632;23.198;2024-03-06T01:57:24;91721.88;;;2.22;100.00
34506;BME280;20748;42.632;23.198;2024-03-06T01:59:58;91722.66;;;2.22;100.00
34506;BME280;20748;42.632;23.198;2024-03-06T02:02:32;91726.53;;;2.30;100.00
34506;BME280;20748;42.632;23.198;2024-03-06T02:05:06;91721.88;;;2.22;100.00
34506;BME280;20748;42.632;23.198;2024-03-06T02:07:42;91723.66;;;2.16;100.00
34506;BME280;20748;42.632;23.198;2024-03-06T02:10:16;91721.59;;;2.18;100.00
34506;BME280;20748;42.632;23.198;2024-03-06T02:12:51;91729.28;;;2.03;100.00
34506;BME280;20748;42.632;23.198;2024-03-06T02:15:25;91733.63;;;2.02;100.00
34506;BME280;20748;42.632;23.198;2024-03-06T02:18:04;91737.72;;;1.93;100.00
34506;BME280;20748;42.632;23.198;2024-03-06T02:20:40;91738.97;;;1.85;100.00
34506;BME280;20748;42.632;23.198;2024-03-06T02:23:13;91741.56;;;1.90;100.00
34506;BME280;20748;42.632;23.198;2024-03-06T02:25:50;91736.47;;;1.95;100.00
34506;BME280;20748;42.632;23.198;2024-03-06T02:28:24;91735.66;;;1.95;100.00
34506;BME280;20748;42.632;23.198;2024-03-06T02:30:57;91740.53;;;1.91;100.00
34506;BME280;20748;42.632;23.198;2024-03-06T02:33:32;91747.19;;;1.82;100.00
34506;BME280;20748;42.632;23.198;2024-03-06T02:36:08;91747.41;;;1.75;100.00
34506;BME280;20748;42.632;23.198;2024-03-06T02:38:41;91746.66;;;1.80;100.00
34506;BME280;20748;42.632;23.198;2024-03-06T02:41:15;91747.91;;;1.72;100.00
34506;BME280;20748;42.632;23.198;2024-03-06T02:43:50;91742.56;;;1.79;100.00
34506;BME280;20748;42.632;23.198;2024-03-06T02:46:24;91751.78;;;1.74;100.00
34506;BME280;20748;42.632;23.198;2024-03-06T02:48:58;91751.28;;;1.78;100.00
34506;BME280;20748;42.632;23.198;2024-03-06T02:51:33;91748.13;;;1.65;100.00
34506;BME280;20748;42.632;23.198;2024-03-06T02:54:06;91746.25;;;1.55;100.00
34506;BME280;20748;42.632;23.198;2024-03-06T02:56:40;91749.63;;;1.56;100.00
34506;BME280;20748;42.632;23.198;2024-03-06T02:59:14;91746.00;;;1.52;100.00
34506;BME280;20748;42.632;23.198;2024-03-06T03:01:47;91752.38;;;1.44;100.00
34506;BME280;20748;42.632;23.198;2024-03-06T03:04:21;91757.25;;;1.45;100.00
34506;BME280;20748;42.632;23.198;2024-03-06T03:06:56;91754.41;;;1.42;100.00
34506;BME280;20748;42.632;23.198;2024-03-06T03:09:30;91757.78;;;1.42;100.00
34506;BME280;20748;42.632;23.198;2024-03-06T03:12:03;91762.28;;;1.30;100.00
34506;BME280;20748;42.632;23.198;2024-03-06T03:14:37;91760.97;;;1.22;100.00
34506;BME280;20748;42.632;23.198;2024-03-06T03:17:11;91768.41;;;1.18;100.00
34506;BME280;20748;42.632;23.198;2024-03-06T03:19:45;91770.72;;;1.20;100.00
34506;BME280;20748;42.632;23.198;2024-03-06T03:22:20;91773.81;;;1.22;100.00
34506;BME280;20748;42.632;23.198;2024-03-06T03:24:54;91763.78;;;1.20;100.00
34506;BME280;20748;42.632;23.198;2024-03-06T03:27:27;91772.50;;;1.19;100.00
34506;BME280;20748;42.632;23.198;2024-03-06T03:30:01;91770.75;;;1.25;100.00
34506;BME280;20748;42.632;23.198;2024-03-06T03:32:35;91770.75;;;1.25;100.00
34506;BME280;20748;42.632;23.198;2024-03-06T03:35:09;91772.56;;;1.25;100.00
34506;BME280;20748;42.632;23.198;2024-03-06T03:37:44;91771.69;;;1.14;100.00
34506;BME280;20748;42.632;23.198;2024-03-06T03:40:18;91765.03;;;1.18;100.00
34506;BME280;20748;42.632;23.198;2024-03-06T03:42:52;91761.66;;;1.12;100.00
34506;BME280;20748;42.632;23.198;2024-03-06T03:45:25;91764.91;;;1.02;100.00
34506;BME280;20748;42.632;23.198;2024-03-06T03:47:59;91772.63;;;1.02;100.00
34506;BME280;20748;42.632;23.198;2024-03-06T03:50:34;91765.38;;;0.94;100.00
34506;BME280;20748;42.632;23.198;2024-03-06T03:53:10;91768.75;;;1.00;100.00
34506;BME280;20748;42.632;23.198;2024-03-06T03:55:44;91769.19;;;0.91;100.00
34506;BME280;20748;42.632;23.198;2024-03-06T03:58:17;91777.25;;;1.00;100.00
34506;BME280;20748;42.632;23.198;2024-03-06T04:00:51;91771.56;;;0.98;100.00
34506;BME280;20748;42.632;23.198;2024-03-06T04:03:27;91776.44;;;1.00;100.00
34506;BME280;20748;42.632;23.198;2024-03-06T04:06:01;91786.94;;;0.93;100.00
34506;BME280;20748;42.632;23.198;2024-03-06T04:08:36;91784.16;;;1.00;100.00
34506;BME280;20748;42.632;23.198;2024-03-06T04:11:10;91774.63;;;0.95;100.00
34506;BME280;20748;42.632;23.198;2024-03-06T04:13:44;91801.38;;;0.99;100.00
34506;BME280;20748;42.632;23.198;2024-03-06T04:16:18;91803.66;;;0.96;100.00
34506;BME280;20748;42.632;23.198;2024-03-06T04:18:52;91803.66;;;0.96;100.00
34506;BME280;20748;42.632;23.198;2024-03-06T04:21:25;91813.03;;;1.07;100.00
34506;BME280;20748;42.632;23.198;2024-03-06T04:24:00;91818.88;;;1.02;100.00
34506;BME280;20748;42.632;23.198;2024-03-06T04:26:34;91820.41;;;1.03;100.00
34506;BME280;20748;42.632;23.198;2024-03-06T04:29:07;91822.97;;;1.03;100.00
34506;BME280;20748;42.632;23.198;2024-03-06T04:31:41;91831.13;;;0.95;100.00
34506;BME280;20748;42.632;23.198;2024-03-06T04:34:15;91822.91;;;0.93;100.00
34506;BME280;20748;42.632;23.198;2024-03-06T04:36:49;91826.00;;;0.95;100.00
34506;BME280;20748;42.632;23.198;2024-03-06T04:39:24;91818.06;;;0.97;100.00
34506;BME280;20748;42.632;23.198;2024-03-06T04:41:57;91830.13;;;0.96;100.00
34506;BME280;20748;42.632;23.198;2024-03-06T04:44:33;91815.38;;;0.86;100.00
34506;BME280;20748;42.632;23.198;2024-03-06T04:47:07;91820.06;;;0.89;100.00
34506;BME280;20748;42.632;23.198;2024-03-06T04:49:41;91820.91;;;1.00;100.00
34506;BME280;20748;42.632;23.198;2024-03-06T04:52:15;91816.00;;;0.99;100.00
34506;BME280;20748;42.632;23.198;2024-03-06T04:54:49;91826.84;;;1.01;100.00
34506;BME280;20748;42.632;23.198;2024-03-06T04:57:23;91826.56;;;1.02;100.00
34506;BME280;20748;42.632;23.198;2024-03-06T04:59:57;91830.91;;;0.97;100.00
34506;BME280;20748;42.632;23.198;2024-03-06T05:02:31;91829.41;;;1.01;100.00
34506;BME280;20748;42.632;23.198;2024-03-06T05:05:24;91830.69;;;1.03;100.00
34506;BME280;20748;42.632;23.198;2024-03-06T05:08:15;91832.59;;;1.13;100.00
34506;BME280;20748;42.632;23.198;2024-03-06T05:11:07;91831.28;;;1.11;100.00
34506;BME280;20748;42.632;23.198;2024-03-06T05:13:59;91833.31;;;1.09;100.00
34506;BME280;20748;42.632;23.198;2024-03-06T05:16:50;91834.66;;;1.16;100.00
34506;BME280;20748;42.632;23.198;2024-03-06T05:19:41;91836.72;;;1.14;100.00
34506;BME280;20748;42.632;23.198;2024-03-06T05:22:32;91834.19;;;1.19;100.00
34506;BME280;20748;42.632;23.198;2024-03-06T05:25:23;91837.34;;;1.27;100.00
34506;BME280;20748;42.632;23.198;2024-03-06T05:28:16;91835.78;;;1.26;100.00
34506;BME280;20748;42.632;23.198;2024-03-06T05:31:15;91840.00;;;1.37;100.00
34506;BME280;20748;42.632;23.198;2024-03-06T05:34:07;91833.88;;;1.43;100.00
34506;BME280;20748;42.632;23.198;2024-03-06T05:36:58;91831.59;;;1.47;100.00
34506;BME280;20748;42.632;23.198;2024-03-06T05:39:50;91840.06;;;1.47;100.00
34506;BME280;20748;42.632;23.198;2024-03-06T05:42:42;91841.38;;;1.50;100.00
34506;BME280;20748;42.632;23.198;2024-03-06T05:45:34;91844.59;;;1.68;100.00
34506;BME280;20748;42.632;23.198;2024-03-06T05:48:25;91844.16;;;1.76;100.00
34506;BME280;20748;42.632;23.198;2024-03-06T05:51:53;91852.41;;;1.83;100.00
34506;BME280;20748;42.632;23.198;2024-03-06T05:54:45;91852.69;;;1.87;100.00
34506;BME280;20748;42.632;23.198;2024-03-06T05:57:36;91858.41;;;1.94;100.00
34506;BME280;20748;42.632;23.198;2024-03-06T06:00:27;91853.53;;;1.93;100.00
34506;BME280;20748;42.632;23.198;2024-03-06T06:03:02;91860.97;;;1.94;100.00
34506;BME280;20748;42.632;23.198;2024-03-06T06:05:36;91869.03;;;2.08;100.00
34506;BME280;20748;42.632;23.198;2024-03-06T06:08:11;91871.16;;;2.17;100.00
34506;BME280;20748;42.632;23.198;2024-03-06T06:10:45;91864.53;;;2.31;100.00
34506;BME280;20748;42.632;23.198;2024-03-06T06:13:18;91872.81;;;2.38;100.00
34506;BME280;20748;42.632;23.198;2024-03-06T06:15:52;91873.66;;;2.49;100.00
34506;BME280;20748;42.632;23.198;2024-03-06T06:18:27;91871.38;;;2.58;100.00
34506;BME280;20748;42.632;23.198;2024-03-06T06:21:01;91875.53;;;2.70;100.00
34506;BME280;20748;42.632;23.198;2024-03-06T06:23:39;91874.50;;;2.71;100.00
34506;BME280;20748;42.632;23.198;2024-03-06T06:26:14;91871.44;;;2.79;100.00
34506;BME280;20748;42.632;23.198;2024-03-06T06:28:47;91864.53;;;2.90;100.00
34506;BME280;20748;42.632;23.198;2024-03-06T06:31:21;91866.63;;;3.03;100.00
34506;BME280;20748;42.632;23.198;2024-03-06T06:33:56;91864.81;;;3.14;100.00
34506;BME280;20748;42.632;23.198;2024-03-06T06:36:29;91864.34;;;3.22;100.00
34506;BME280;20748;42.632;23.198;2024-03-06T06:39:03;91864.88;;;3.35;100.00
34506;BME280;20748;42.632;23.198;2024-03-06T06:41:39;91860.22;;;3.42;100.00
34506;BME280;20748;42.632;23.198;2024-03-06T06:44:12;91860.00;;;3.49;100.00
34506;BME280;20748;42.632;23.198;2024-03-06T06:46:46;91862.56;;;3.65;100.00
34506;BME280;20748;42.632;23.198;2024-03-06T06:49:21;91861.28;;;3.78;100.00
34506;BME280;20748;42.632;23.198;2024-03-06T06:51:54;91864.88;;;3.92;100.00
34506;BME280;20748;42.632;23.198;2024-03-06T06:54:28;91863.31;;;4.01;100.00
34506;BME280;20748;42.632;23.198;2024-03-06T06:57:02;91864.84;;;4.13;100.00
34506;BME280;20748;42.632;23.198;2024-03-06T06:59:36;91864.06;;;4.28;100.00
34506;BME280;20748;42.632;23.198;2024-03-06T07:02:11;91870.50;;;4.41;100.00
34506;BME280;20748;42.632;23.198;2024-03-06T07:04:46;91866.31;;;4.50;100.00
34506;BME280;20748;42.632;23.198;2024-03-06T07:07:20;91873.25;;;4.65;100.00
34506;BME280;20748;42.632;23.198;2024-03-06T07:09:54;91866.25;;;4.76;100.00
34506;BME280;20748;42.632;23.198;2024-03-06T07:12:28;91866.72;;;4.89;100.00
34506;BME280;20748;42.632;23.198;2024-03-06T07:15:02;91866.91;;;5.03;100.00
34506;BME280;20748;42.632;23.198;2024-03-06T07:17:36;91868.13;;;5.10;100.00
34506;BME280;20748;42.632;23.198;2024-03-06T07:20:12;91871.19;;;5.23;100.00
34506;BME280;20748;42.632;23.198;2024-03-06T07:22:46;91872.66;;;5.34;100.00
34506;BME280;20748;42.632;23.198;2024-03-06T07:25:20;91872.84;;;5.48;100.00
34506;BME280;20748;42.632;23.198;2024-03-06T07:27:54;91877.59;;;5.31;100.00
34506;BME280;20748;42.632;23.198;2024-03-06T07:30:27;91876.44;;;5.53;100.00
34506;BME280;20748;42.632;23.198;2024-03-06T07:33:02;91873.19;;;5.71;100.00
34506;BME280;20748;42.632;23.198;2024-03-06T07:35:38;91878.00;;;5.88;100.00
34506;BME280;20748;42.632;23.198;2024-03-06T07:38:12;91874.59;;;5.93;99.32
34506;BME280;20748;42.632;23.198;2024-03-06T07:40:46;91872.91;;;6.13;99.25
34506;BME280;20748;42.632;23.198;2024-03-06T07:43:20;91870.03;;;6.14;97.02
34506;BME280;20748;42.632;23.198;2024-03-06T07:45:53;91869.22;;;6.19;95.89
34506;BME280;20748;42.632;23.198;2024-03-06T07:48:27;91861.78;;;6.37;96.17
34506;BME280;20748;42.632;23.198;2024-03-06T07:51:03;91862.41;;;6.53;95.90
34506;BME280;20748;42.632;23.198;2024-03-06T07:53:37;91859.13;;;6.71;96.85
34506;BME280;20748;42.632;23.198;2024-03-06T07:56:11;91858.66;;;6.89;95.40
34506;BME280;20748;42.632;23.198;2024-03-06T07:58:45;91862.72;;;6.95;91.72
34506;BME280;20748;42.632;23.198;2024-03-06T08:01:18;91860.50;;;7.07;90.58
34506;BME280;20748;42.632;23.198;2024-03-06T08:03:53;91865.44;;;7.28;90.31
34506;BME280;20748;42.632;23.198;2024-03-06T08:06:28;91854.75;;;7.49;90.06
34506;BME280;20748;42.632;23.198;2024-03-06T08:09:04;91868.78;;;7.67;90.52
34506;BME280;20748;42.632;23.198;2024-03-06T08:11:39;91862.84;;;7.81;89.20
34506;BME280;20748;42.632;23.198;2024-03-06T08:14:12;91866.53;;;8.13;89.01
34506;BME280;20748;42.632;23.198;2024-03-06T08:16:47;91866.88;;;8.39;89.06
34506;BME280;20748;42.632;23.198;2024-03-06T08:19:21;91871.53;;;8.56;86.73
34506;BME280;20748;42.632;23.198;2024-03-06T08:21:58;91873.44;;;8.79;86.49
34506;BME280;20748;42.632;23.198;2024-03-06T08:24:35;91874.78;;;8.76;86.68
34506;BME280;20748;42.632;23.198;2024-03-06T08:27:09;91873.91;;;8.95;84.97
34506;BME280;20748;42.632;23.198;2024-03-06T08:29:43;91876.13;;;8.88;84.57
34506;BME280;20748;42.632;23.198;2024-03-06T08:32:16;91872.47;;;8.89;85.54
34506;BME280;20748;42.632;23.198;2024-03-06T08:34:50;91872.47;;;9.03;84.61
34506;BME280;20748;42.632;23.198;2024-03-06T08:37:25;91872.34;;;9.22;84.70
34506;BME280;20748;42.632;23.198;2024-03-06T08:39:59;91874.97;;;9.59;83.57
34506;BME280;20748;42.632;23.198;2024-03-06T08:42:33;91871.63;;;9.81;84.01
34506;BME280;20748;42.632;23.198;2024-03-06T08:45:07;91872.97;;;9.78;81.74
34506;BME280;20748;42.632;23.198;2024-03-06T08:47:41;91872.84;;;9.84;81.82
34506;BME280;20748;42.632;23.198;2024-03-06T08:50:16;91875.06;;;9.90;81.55
34506;BME280;20748;42.632;23.198;2024-03-06T08:52:51;91877.06;;;9.93;80.82
34506;BME280;20748;42.632;23.198;2024-03-06T08:55:25;91882.44;;;9.97;80.81
34506;BME280;20748;42.632;23.198;2024-03-06T08:57:59;91871.66;;;10.36;79.12
34506;BME280;20748;42.632;23.198;2024-03-06T09:00:34;91876.50;;;10.51;77.37
34506;BME280;20748;42.632;23.198;2024-03-06T09:03:07;91875.59;;;10.87;76.69
34506;BME280;20748;42.632;23.198;2024-03-06T09:05:41;91876.41;;;11.14;74.38
34506;BME280;20748;42.632;23.198;2024-03-06T09:08:16;91874.44;;;11.29;73.43
34506;BME280;20748;42.632;23.198;2024-03-06T09:10:51;91876.00;;;11.39;72.51
34506;BME280;20748;42.632;23.198;2024-03-06T09:13:25;91881.78;;;11.18;73.04
34506;BME280;20748;42.632;23.198;2024-03-06T09:15:58;91872.16;;;11.45;72.43
34506;BME280;20748;42.632;23.198;2024-03-06T09:18:33;91867.41;;;11.56;72.56
34506;BME280;20748;42.632;23.198;2024-03-06T09:21:06;91875.41;;;11.77;71.04
34506;BME280;20748;42.632;23.198;2024-03-06T09:23:41;91875.09;;;11.61;69.94
34506;BME280;20748;42.632;23.198;2024-03-06T09:26:15;91878.47;;;11.35;69.81
34506;BME280;20748;42.632;23.198;2024-03-06T09:28:49;91881.09;;;11.62;69.63
34506;BME280;20748;42.632;23.198;2024-03-06T09:31:22;91873.09;;;11.49;71.94
34506;BME280;20748;42.632;23.198;2024-03-06T09:33:57;91869.56;;;11.89;72.22
34506;BME280;20748;42.632;23.198;2024-03-06T09:36:31;91869.41;;;11.94;70.89
34506;BME280;20748;42.632;23.198;2024-03-06T09:39:07;91879.53;;;11.78;68.42
34506;BME280;20748;42.632;23.198;2024-03-06T09:41:41;91872.94;;;11.63;69.29
34506;BME280;20748;42.632;23.198;2024-03-06T09:44:16;91876.03;;;11.57;69.83
34506;BME280;20748;42.632;23.198;2024-03-06T09:46:50;91872.47;;;11.52;68.80
34506;BME280;20748;42.632;23.198;2024-03-06T09:49:24;91874.63;;;11.50;69.26
34506;BME280;20748;42.632;23.198;2024-03-06T09:51:58;91875.84;;;11.35;70.06
34506;BME280;20748;42.632;23.198;2024-03-06T09:54:34;91874.44;;;11.29;69.87
34506;BME280;20748;42.632;23.198;2024-03-06T09:57:07;91875.44;;;11.01;70.72
34506;BME280;20748;42.632;23.198;2024-03-06T09:59:46;91869.66;;;11.22;72.42
34506;BME280;20748;42.632;23.198;2024-03-06T10:02:33;91869.72;;;11.58;69.64
34506;BME280;20748;42.632;23.198;2024-03-06T10:05:20;91867.69;;;11.63;69.33
34506;BME280;20748;42.632;23.198;2024-03-06T10:07:55;91859.09;;;11.54;70.83
34506;BME280;20748;42.632;23.198;2024-03-06T10:10:30;91854.19;;;11.52;70.94
34506;BME280;20748;42.632;23.198;2024-03-06T10:13:04;91864.78;;;11.65;69.83
34506;BME280;20748;42.632;23.198;2024-03-06T10:15:39;91857.25;;;11.81;67.08
34506;BME280;20748;42.632;23.198;2024-03-06T10:18:14;91856.34;;;11.86;67.82
34506;BME280;20748;42.632;23.198;2024-03-06T10:20:51;91857.22;;;11.99;66.29
34506;BME280;20748;42.632;23.198;2024-03-06T10:23:25;91852.88;;;12.38;64.89
34506;BME280;20748;42.632;23.198;2024-03-06T10:26:02;91856.63;;;12.28;63.83
34506;BME280;20748;42.632;23.198;2024-03-06T10:28:36;91855.06;;;12.36;62.71
34506;BME280;20748;42.632;23.198;2024-03-06T10:31:11;91846.47;;;12.18;63.98
34506;BME280;20748;42.632;23.198;2024-03-06T10:33:44;91844.50;;;12.15;61.95
34506;BME280;20748;42.632;23.198;2024-03-06T10:36:18;91841.56;;;11.81;60.13
34506;BME280;20748;42.632;23.198;2024-03-06T10:38:54;91844.31;;;11.85;59.20
34506;BME280;20748;42.632;23.198;2024-03-06T10:41:32;91841.09;;;11.88;58.62
34506;BME280;20748;42.632;23.198;2024-03-06T10:44:10;91841.56;;;11.72;58.17
34506;BME280;20748;42.632;23.198;2024-03-06T10:46:46;91843.13;;;11.73;57.67
34506;BME280;20748;42.632;23.198;2024-03-06T10:49:26;91841.25;;;11.82;56.91
34506;BME280;20748;42.632;23.198;2024-03-06T10:52:03;91836.47;;;12.02;56.71
34506;BME280;20748;42.632;23.198;2024-03-06T10:54:39;91831.56;;;12.10;56.59
34506;BME280;20748;42.632;23.198;2024-03-06T10:57:16;91832.78;;;12.03;55.82
34506;BME280;20748;42.632;23.198;2024-03-06T10:59:52;91832.00;;;12.03;56.11
34506;BME280;20748;42.632;23.198;2024-03-06T11:02:27;91837.53;;;12.01;56.19
34506;BME280;20748;42.632;23.198;2024-03-06T11:05:02;91827.09;;;12.10;56.06
34506;BME280;20748;42.632;23.198;2024-03-06T11:07:37;91829.72;;;11.92;56.16
34506;BME280;20748;42.632;23.198;2024-03-06T11:10:11;91825.13;;;11.89;56.95
34506;BME280;20748;42.632;23.198;2024-03-06T11:12:50;91827.75;;;11.80;57.83
34506;BME280;20748;42.632;23.198;2024-03-06T11:15:24;91818.00;;;11.99;57.14
34506;BME280;20748;42.632;23.198;2024-03-06T11:17:57;91815.25;;;11.95;56.48
34506;BME280;20748;42.632;23.198;2024-03-06T11:20:35;91817.16;;;11.77;57.29
34506;BME280;20748;42.632;23.198;2024-03-06T11:23:09;91810.38;;;11.67;56.73
34506;BME280;20748;42.632;23.198;2024-03-06T11:26:02;91812.38;;;11.61;56.53
34506;BME280;20748;42.632;23.198;2024-03-06T11:28:38;91810.06;;;11.42;57.14
34506;BME280;20748;42.632;23.198;2024-03-06T11:31:15;91799.63;;;11.24;57.58
34506;BME280;20748;42.632;23.198;2024-03-06T11:33:53;91797.16;;;11.37;57.80
34506;BME280;20748;42.632;23.198;2024-03-06T11:36:28;91793.50;;;11.29;57.46
34506;BME280;20748;42.632;23.198;2024-03-06T11:39:03;91784.56;;;11.48;57.74
34506;BME280;20748;42.632;23.198;2024-03-06T11:41:46;91787.03;;;11.62;56.67
34506;BME280;20748;42.632;23.198;2024-03-06T11:44:22;91790.69;;;11.78;56.02
34506;BME280;20748;42.632;23.198;2024-03-06T11:46:58;91787.91;;;11.84;54.56
34506;BME280;20748;42.632;23.198;2024-03-06T11:49:32;91776.97;;;11.90;54.91
34506;BME280;20748;42.632;23.198;2024-03-06T11:52:07;91780.75;;;12.28;55.66
34506;BME280;20748;42.632;23.198;2024-03-06T11:54:42;91777.25;;;12.54;55.41
34506;BME280;20748;42.632;23.198;2024-03-06T11:57:16;91780.72;;;12.97;55.75
34506;BME280;20748;42.632;23.198;2024-03-06T11:59:54;91769.63;;;13.43;50.86
34506;BME280;20748;42.632;23.198;2024-03-06T12:02:28;91766.81;;;13.69;47.76
34506;BME280;20748;42.632;23.198;2024-03-06T12:05:03;91772.22;;;13.52;45.73
34506;BME280;20748;42.632;23.198;2024-03-06T12:07:45;91763.09;;;13.71;46.38
34506;BME280;20748;42.632;23.198;2024-03-06T12:10:19;91760.84;;;13.81;45.77
34506;BME280;20748;42.632;23.198;2024-03-06T12:12:53;91752.47;;;14.01;45.52
34506;BME280;20748;42.632;23.198;2024-03-06T12:15:27;91755.22;;;14.17;44.84
34506;BME280;20748;42.632;23.198;2024-03-06T12:18:01;91744.81;;;13.95;43.70
34506;BME280;20748;42.632;23.198;2024-03-06T12:20:35;91751.75;;;14.13;42.55
34506;BME280;20748;42.632;23.198;2024-03-06T12:23:23;91750.34;;;14.40;43.37
34506;BME280;20748;42.632;23.198;2024-03-06T12:26:05;91738.31;;;14.52;42.15
34506;BME280;20748;42.632;23.198;2024-03-06T12:28:39;91743.63;;;14.18;42.66
34506;BME280;20748;42.632;23.198;2024-03-06T12:31:14;91736.34;;;14.36;43.77
34506;BME280;20748;42.632;23.198;2024-03-06T12:33:56;91728.13;;;14.13;41.73
34506;BME280;20748;42.632;23.198;2024-03-06T12:36:34;91724.53;;;14.17;42.00
34506;BME280;20748;42.632;23.198;2024-03-06T12:39:08;91725.31;;;14.30;42.79
34506;BME280;20748;42.632;23.198;2024-03-06T12:41:45;91730.09;;;14.28;43.12
34506;BME280;20748;42.632;23.198;2024-03-06T12:44:19;91725.31;;;14.55;41.58
34506;BME280;20748;42.632;23.198;2024-03-06T12:46:54;91724.88;;;14.66;41.05
34506;BME280;20748;42.632;23.198;2024-03-06T12:49:28;91723.88;;;14.58;40.46
34506;BME280;20748;42.632;23.198;2024-03-06T12:52:02;91730.09;;;14.41;41.62
34506;BME280;20748;42.632;23.198;2024-03-06T12:54:37;91724.75;;;14.49;42.24
34506;BME280;20748;42.632;23.198;2024-03-06T12:57:11;91722.25;;;14.78;42.38
34506;BME280;20748;42.632;23.198;2024-03-06T12:59:45;91722.41;;;15.10;42.51
34506;BME280;20748;42.632;23.198;2024-03-06T13:02:20;91724.19;;;15.35;40.42
34506;BME280;20748;42.632;23.198;2024-03-06T13:04:54;91717.13;;;15.51;41.40
34506;BME280;20748;42.632;23.198;2024-03-06T13:07:28;91713.31;;;15.36;38.94
34506;BME280;20748;42.632;23.198;2024-03-06T13:10:02;91723.91;;;15.52;40.38
34506;BME280;20748;42.632;23.198;2024-03-06T13:12:37;91709.31;;;15.26;40.07
34506;BME280;20748;42.632;23.198;2024-03-06T13:15:11;91725.78;;;15.23;39.59
34506;BME280;20748;42.632;23.198;2024-03-06T13:17:46;91711.72;;;14.90;42.01
34506;BME280;20748;42.632;23.198;2024-03-06T13:20:20;91718.28;;;14.47;46.46
34506;BME280;20748;42.632;23.198;2024-03-06T13:22:54;91727.50;;;13.69;49.26
34506;BME280;20748;42.632;23.198;2024-03-06T13:25:28;91722.59;;;13.47;50.58
34506;BME280;20748;42.632;23.198;2024-03-06T13:28:01;91730.13;;;13.06;52.81
34506;BME280;20748;42.632;23.198;2024-03-06T13:30:35;91730.56;;;12.65;54.06
34506;BME280;20748;42.632;23.198;2024-03-06T13:33:11;91721.69;;;12.27;55.99
34506;BME280;20748;42.632;23.198;2024-03-06T13:35:45;91724.38;;;12.40;56.43